createdAt,value
2022-11-21T00:01:38.601Z,81.19
2022-11-21T00:04:42.648Z,82.22
2022-11-21T00:07:45.951Z,82.18
2022-11-21T00:10:48.939Z,81.99
2022-11-21T00:13:51.659Z,82.02
2022-11-21T00:16:57.335Z,82.53
2022-11-21T00:20:01.629Z,82.92
2022-11-21T00:23:04.797Z,82.62
2022-11-21T00:26:08.374Z,82.55
2022-11-21T00:29:11.145Z,83.35
2022-11-21T00:32:13.769Z,83.38
2022-11-21T00:35:18.295Z,83.32
2022-11-21T00:38:20.997Z,83.50
2022-11-21T00:41:23.891Z,83.00
2022-11-21T00:44:26.753Z,83.39
2022-11-21T00:47:29.568Z,83.79
2022-11-21T00:50:33.731Z,83.52
2022-11-21T00:53:36.431Z,83.41
2022-11-21T00:56:39.107Z,82.92
2022-11-21T00:59:41.784Z,83.30
2022-11-21T01:02:44.437Z,83.40
2022-11-21T01:05:48.419Z,83.25
2022-11-21T01:08:51.111Z,82.64
2022-11-21T01:11:53.751Z,83.22
2022-11-21T01:14:56.396Z,82.81
2022-11-21T01:17:59.066Z,82.78
2022-11-21T01:21:05.085Z,83.90
2022-11-21T01:24:08.046Z,84.69
2022-11-21T01:27:10.710Z,85.19
2022-11-21T01:30:14.524Z,85.99
2022-11-21T01:33:17.227Z,86.02
2022-11-21T01:36:23.308Z,86.16
2022-11-21T01:39:26.120Z,86.99
2022-11-21T01:42:28.809Z,87.43
2022-11-21T01:45:56.044Z,87.65
2022-11-21T01:49:03.815Z,88.17
2022-11-21T01:52:10.685Z,88.44
2022-11-21T01:55:13.315Z,88.73
2022-11-21T01:58:16.866Z,88.78
2022-11-21T02:01:19.916Z,89.37
2022-11-21T02:04:26.855Z,89.39
2022-11-21T02:07:35.842Z,90.34
2022-11-21T02:10:42.660Z,88.74
2022-11-21T02:13:45.539Z,89.50
2022-11-21T02:16:48.466Z,90.30
2022-11-21T02:19:55.105Z,89.88
2022-11-21T02:23:05.751Z,89.70
2022-11-21T02:26:10.478Z,90.05
2022-11-21T02:29:13.208Z,88.89
2022-11-21T02:32:23.060Z,88.86
2022-11-21T02:35:26.030Z,88.98
2022-11-21T02:38:31.991Z,86.97
2022-11-21T02:41:38.735Z,87.57
2022-11-21T02:44:47.283Z,88.18
2022-11-21T02:47:52.210Z,87.21
2022-11-21T02:50:55.010Z,86.85
2022-11-21T02:53:57.792Z,87.54
2022-11-21T02:57:02.294Z,87.59
2022-11-21T03:00:05.951Z,87.25
2022-11-21T03:03:08.845Z,87.11
2022-11-21T03:06:11.580Z,87.35
2022-11-21T03:09:14.296Z,86.94
2022-11-21T03:12:18.379Z,87.53
2022-11-21T03:15:21.083Z,87.71
2022-11-21T03:18:23.884Z,88.52
2022-11-21T03:21:26.668Z,88.60
2022-11-21T03:24:29.700Z,88.20
2022-11-21T03:27:34.001Z,88.54
2022-11-21T03:30:36.735Z,88.53
2022-11-21T03:33:39.618Z,88.29
2022-11-21T03:36:42.351Z,89.29
2022-11-21T03:39:45.052Z,88.85
2022-11-21T03:42:49.261Z,89.65
2022-11-21T03:45:51.992Z,89.61
2022-11-21T03:48:54.916Z,90.27
2022-11-21T03:51:57.779Z,89.65
2022-11-21T03:55:00.501Z,90.15
2022-11-21T03:58:04.708Z,90.68
2022-11-21T04:01:07.501Z,90.20
2022-11-21T04:04:10.206Z,90.43
2022-11-21T04:07:13.051Z,90.26
2022-11-21T04:10:16.558Z,90.08
2022-11-21T04:13:21.793Z,90.82
2022-11-21T04:16:24.529Z,89.90
2022-11-21T04:19:27.358Z,89.66
2022-11-21T04:22:30.110Z,88.80
2022-11-21T04:25:33.378Z,89.50
2022-11-21T04:28:38.199Z,89.82
2022-11-21T04:31:41.038Z,90.02
2022-11-21T04:34:43.752Z,89.14
2022-11-21T04:37:46.773Z,89.75
2022-11-21T04:40:49.522Z,89.37
2022-11-21T04:43:59.578Z,89.68
2022-11-21T04:47:17.929Z,90.40
2022-11-21T04:50:32.942Z,90.36
2022-11-21T04:53:43.310Z,90.83
2022-11-21T04:56:49.325Z,91.31
2022-11-21T05:00:00.559Z,91.96
2022-11-21T05:03:24.491Z,92.01
2022-11-21T05:06:37.310Z,92.63
2022-11-21T05:09:51.886Z,92.14
2022-11-21T05:13:19.932Z,92.14
2022-11-21T05:16:36.254Z,92.46
2022-11-21T05:19:50.200Z,92.89
2022-11-21T05:22:57.725Z,92.29
2022-11-21T05:26:10.826Z,92.02
2022-11-21T05:29:25.192Z,92.42
2022-11-21T05:32:45.479Z,92.62
2022-11-21T05:35:53.612Z,92.30
2022-11-21T05:39:06.348Z,92.08
2022-11-21T05:42:12.985Z,92.80
2022-11-21T05:45:21.059Z,92.34
2022-11-21T05:48:35.276Z,92.39
2022-11-21T05:51:53.021Z,92.10
2022-11-21T05:55:03.970Z,91.56
2022-11-21T05:58:18.442Z,91.75
2022-11-21T06:01:42.113Z,91.53
2022-11-21T06:04:54.142Z,91.52
2022-11-21T06:08:04.972Z,91.97
2022-11-21T06:11:15.848Z,90.77
2022-11-21T06:14:30.121Z,91.42
2022-11-21T06:17:40.871Z,91.25
2022-11-21T06:20:53.454Z,91.61
2022-11-21T06:24:09.700Z,91.71
2022-11-21T06:27:30.416Z,91.11
2022-11-21T06:30:42.018Z,90.40
2022-11-21T06:33:54.993Z,90.48
2022-11-21T06:37:05.971Z,90.13
2022-11-21T06:40:23.009Z,89.83
2022-11-21T06:43:39.142Z,89.54
2022-11-21T06:47:17.118Z,89.67
2022-11-21T06:50:48.533Z,90.17
2022-11-21T06:54:16.291Z,90.45
2022-11-21T06:57:27.201Z,90.96
2022-11-21T07:00:40.348Z,91.37
2022-11-21T07:04:04.959Z,90.93
2022-11-21T07:07:12.811Z,91.97
2022-11-21T07:10:19.905Z,92.15
2022-11-21T07:13:25.265Z,91.79
2022-11-21T07:16:33.390Z,91.50
2022-11-21T07:19:42.366Z,91.61
2022-11-21T07:22:49.188Z,91.73
2022-11-21T07:26:02.130Z,91.88
2022-11-21T07:29:08.418Z,91.47
2022-11-21T07:32:21.245Z,91.67
2022-11-21T07:35:26.562Z,91.08
2022-11-21T07:38:32.528Z,90.29
2022-11-21T07:41:37.658Z,90.70
2022-11-21T07:44:42.499Z,91.42
2022-11-21T07:48:01.380Z,90.81
2022-11-21T07:51:08.150Z,90.62
2022-11-21T07:54:12.823Z,90.65
2022-11-21T07:57:19.757Z,89.45
2022-11-21T08:00:25.533Z,88.09
2022-11-21T08:03:29.858Z,87.07
2022-11-21T08:06:35.232Z,85.21
2022-11-21T08:09:39.946Z,83.70
2022-11-21T08:12:47.625Z,83.28
2022-11-21T08:15:52.028Z,82.52
2022-11-21T08:18:57.827Z,82.99
2022-11-21T08:22:03.047Z,82.06
2022-11-21T08:25:09.557Z,81.81
2022-11-21T08:28:16.179Z,79.61
2022-11-21T08:31:19.697Z,80.05
2022-11-21T08:34:23.897Z,79.84
2022-11-21T08:37:30.714Z,79.02
2022-11-21T08:40:36.753Z,78.74
2022-11-21T08:43:44.799Z,78.59
2022-11-21T08:46:49.887Z,78.58
2022-11-21T08:49:53.413Z,78.66
2022-11-21T08:53:05.394Z,78.89
2022-11-21T08:56:12.013Z,77.77
2022-11-21T08:59:17.623Z,77.43
2022-11-21T09:02:35.972Z,77.12
2022-11-21T09:05:41.848Z,75.85
2022-11-21T09:08:48.571Z,76.08
2022-11-21T09:11:53.652Z,76.27
2022-11-21T09:15:16.353Z,75.78
2022-11-21T09:18:20.309Z,75.68
2022-11-21T09:21:26.711Z,75.53
2022-11-21T09:24:33.994Z,74.02
2022-11-21T09:27:38.410Z,75.44
2022-11-21T09:30:47.400Z,73.92
2022-11-21T09:33:54.949Z,73.31
2022-11-21T09:37:02.191Z,70.92
2022-11-21T09:40:11.912Z,70.03
2022-11-21T09:43:49.692Z,70.57
2022-11-21T09:47:05.089Z,68.40
2022-11-21T09:50:24.577Z,67.95
2022-11-21T09:53:34.072Z,68.42
2022-11-21T09:56:43.960Z,68.88
2022-11-21T09:59:49.585Z,69.38
2022-11-21T10:02:56.616Z,67.83
2022-11-21T10:06:05.643Z,67.56
2022-11-21T10:09:20.102Z,64.78
2022-11-21T10:12:48.663Z,60.44
2022-11-21T10:16:02.792Z,57.99
2022-11-21T10:19:26.358Z,56.46
2022-11-21T10:22:43.482Z,55.81
2022-11-21T10:25:57.752Z,57.13
2022-11-21T10:29:06.817Z,57.63
2022-11-21T10:32:23.366Z,57.11
2022-11-21T10:35:39.237Z,57.89
2022-11-21T10:38:46.918Z,55.18
2022-11-21T10:41:58.328Z,50.02
2022-11-21T10:45:20.297Z,50.21
2022-11-21T10:48:25.398Z,51.58
2022-11-21T10:51:44.352Z,52.87
2022-11-21T10:55:09.031Z,54.25
2022-11-21T10:58:20.915Z,56.96
2022-11-21T11:01:31.478Z,59.71
2022-11-21T11:04:45.805Z,60.49
2022-11-21T11:08:05.263Z,62.54
2022-11-21T11:11:15.365Z,63.17
2022-11-21T11:14:33.387Z,64.48
2022-11-21T11:17:37.556Z,64.05
2022-11-21T11:20:44.130Z,63.83
2022-11-21T11:23:51.337Z,62.22
2022-11-21T11:27:01.487Z,59.66
2022-11-21T11:30:10.306Z,57.89
2022-11-21T11:33:36.328Z,56.30
2022-11-21T11:36:59.260Z,54.64
2022-11-21T11:40:16.503Z,53.81
2022-11-21T11:43:53.355Z,49.48
2022-11-21T11:47:22.758Z,48.03
2022-11-21T11:50:33.339Z,48.12
2022-11-21T11:53:43.855Z,47.08
2022-11-21T11:56:50.072Z,48.57
2022-11-21T12:00:05.140Z,50.61
2022-11-21T12:03:18.704Z,50.08
2022-11-21T12:06:44.985Z,47.27
2022-11-21T12:10:00.447Z,47.78
2022-11-21T12:13:13.080Z,47.34
2022-11-21T12:16:18.163Z,46.00
2022-11-21T12:19:24.685Z,45.83
2022-11-21T12:22:28.566Z,43.09
2022-11-21T12:25:39.609Z,40.54
2022-11-21T12:29:02.380Z,41.03
2022-11-21T12:32:23.075Z,38.71
2022-11-21T12:35:49.984Z,40.86
2022-11-21T12:39:16.578Z,40.77
2022-11-21T12:42:47.228Z,40.51
2022-11-21T12:45:56.283Z,37.52
2022-11-21T12:49:26.936Z,35.12
2022-11-21T12:52:52.162Z,32.81
2022-11-21T12:56:01.268Z,32.47
2022-11-21T12:59:05.131Z,32.42
2022-11-21T13:02:20.049Z,33.88
2022-11-21T13:05:29.457Z,35.78
2022-11-21T13:08:36.629Z,37.51
2022-11-21T13:11:59.631Z,39.66
2022-11-21T13:15:14.984Z,40.64
2022-11-21T13:18:24.209Z,42.65
2022-11-21T13:21:42.215Z,42.96
2022-11-21T13:24:59.486Z,44.20
2022-11-21T13:28:35.453Z,43.72
2022-11-21T13:31:38.958Z,45.48
2022-11-21T13:34:42.991Z,44.89
2022-11-21T13:38:01.591Z,46.02
2022-11-21T13:41:21.996Z,45.68
2022-11-21T13:44:30.704Z,47.58
2022-11-21T13:48:05.740Z,48.23
2022-11-21T13:51:26.008Z,48.54
2022-11-21T13:54:57.531Z,50.61
2022-11-21T13:58:11.642Z,50.56
2022-11-21T14:01:37.478Z,51.27
2022-11-21T14:05:05.285Z,53.30
2022-11-21T14:08:20.244Z,54.44
2022-11-21T14:11:33.901Z,54.81
2022-11-21T14:14:41.327Z,55.29
2022-11-21T14:17:47.138Z,57.71
2022-11-21T14:20:53.871Z,56.66
2022-11-21T14:23:59.697Z,55.68
2022-11-21T14:27:06.904Z,55.42
2022-11-21T14:30:31.873Z,55.30
2022-11-21T14:33:36.175Z,56.14
2022-11-21T14:36:40.430Z,57.13
2022-11-21T14:39:45.501Z,57.49
2022-11-21T14:42:48.859Z,57.76
2022-11-21T14:45:51.531Z,58.27
2022-11-21T14:48:57.189Z,58.96
2022-11-21T14:52:05.100Z,59.08
2022-11-21T14:55:32.223Z,58.86
2022-11-21T14:58:35.845Z,59.77
2022-11-21T15:01:42.040Z,59.93
2022-11-21T15:04:49.475Z,61.34
2022-11-21T15:08:01.184Z,62.25
2022-11-21T15:11:18.400Z,63.08
2022-11-21T15:14:28.977Z,66.68
2022-11-21T15:17:32.513Z,68.81
2022-11-21T15:20:35.229Z,69.99
2022-11-21T15:23:40.242Z,70.21
2022-11-21T15:26:44.267Z,70.40
2022-11-21T15:29:46.961Z,70.41
2022-11-21T15:33:06.398Z,70.96
2022-11-21T15:36:14.063Z,72.08
2022-11-21T15:39:22.593Z,72.72
2022-11-21T15:42:39.072Z,72.81
2022-11-21T15:45:42.482Z,73.44
2022-11-21T15:48:49.379Z,73.53
2022-11-21T15:52:06.577Z,73.67
2022-11-21T15:55:17.986Z,74.13
2022-11-21T15:58:22.233Z,74.53
2022-11-21T16:01:26.681Z,74.17
2022-11-21T16:04:29.503Z,74.16
2022-11-21T16:07:32.409Z,74.59
2022-11-21T16:10:36.023Z,75.57
2022-11-21T16:13:40.008Z,76.12
2022-11-21T16:16:44.200Z,76.36
2022-11-21T16:19:46.927Z,77.10
2022-11-21T16:22:49.966Z,77.48
2022-11-21T16:25:54.259Z,77.50
2022-11-21T16:28:59.340Z,78.26
2022-11-21T16:32:02.293Z,77.91
2022-11-21T16:35:05.717Z,78.10
2022-11-21T16:38:08.987Z,78.00
2022-11-21T16:41:11.686Z,78.06
2022-11-21T16:44:21.529Z,78.18
2022-11-21T16:47:25.116Z,78.91
2022-11-21T16:50:29.022Z,79.69
2022-11-21T16:53:32.686Z,79.30
2022-11-21T16:56:37.327Z,79.83
2022-11-21T16:59:42.434Z,80.25
2022-11-21T17:02:47.125Z,80.20
2022-11-21T17:05:58.860Z,80.52
2022-11-21T17:09:02.989Z,80.11
2022-11-21T17:12:07.754Z,81.44
2022-11-21T17:15:16.183Z,81.90
2022-11-21T17:18:21.223Z,81.59
2022-11-21T17:21:27.002Z,81.20
2022-11-21T17:24:34.112Z,80.84
2022-11-21T17:27:38.787Z,81.13
2022-11-21T17:30:46.533Z,82.02
2022-11-21T17:33:52.105Z,81.34
2022-11-21T17:36:57.252Z,81.48
2022-11-21T17:40:04.664Z,80.33
2022-11-21T17:43:11.543Z,77.90
2022-11-21T17:46:19.666Z,77.65
2022-11-21T17:49:24.573Z,76.89
2022-11-21T17:52:30.208Z,77.40
2022-11-21T17:55:35.046Z,76.16
2022-11-21T17:58:40.575Z,76.44
2022-11-21T18:01:49.410Z,76.14
2022-11-21T18:04:55.190Z,76.18
2022-11-21T18:08:00.557Z,76.29
2022-11-21T18:11:05.285Z,75.54
2022-11-21T18:14:11.277Z,76.28
2022-11-21T18:17:18.124Z,75.18
2022-11-21T18:20:24.667Z,75.54
2022-11-21T18:23:30.343Z,75.91
2022-11-21T18:26:38.662Z,75.42
2022-11-21T18:29:43.658Z,75.72
2022-11-21T18:32:52.407Z,75.67
2022-11-21T18:35:57.153Z,76.46
2022-11-21T18:39:08.868Z,77.14
2022-11-21T18:42:16.856Z,78.42
2022-11-21T18:45:21.688Z,78.89
2022-11-21T18:48:28.561Z,79.58
2022-11-21T18:51:34.375Z,79.67
2022-11-21T18:54:39.194Z,77.60
2022-11-21T18:57:44.025Z,75.76
2022-11-21T19:00:48.708Z,75.55
2022-11-21T19:03:55.580Z,76.25
2022-11-21T19:07:01.249Z,75.77
2022-11-21T19:10:35.624Z,76.67
2022-11-21T19:13:33.125Z,77.23
2022-11-21T19:16:37.690Z,77.27
2022-11-21T19:19:44.862Z,77.68
2022-11-21T19:22:53.334Z,76.93
2022-11-21T19:26:03.256Z,76.69
2022-11-21T19:29:08.101Z,75.77
2022-11-21T19:32:12.784Z,75.70
2022-11-21T19:35:19.676Z,76.07
2022-11-21T19:38:24.944Z,75.83
2022-11-21T19:41:31.126Z,76.42
2022-11-21T19:44:36.224Z,76.25
2022-11-21T19:47:41.601Z,76.58
2022-11-21T19:50:58.632Z,76.94
2022-11-21T19:54:04.201Z,76.89
2022-11-21T19:57:13.696Z,77.60
2022-11-21T20:00:22.541Z,77.20
2022-11-21T20:03:27.404Z,77.32
2022-11-21T20:06:36.607Z,79.03
2022-11-21T20:09:41.519Z,79.47
2022-11-21T20:12:46.919Z,80.25
2022-11-21T20:15:51.568Z,80.64
2022-11-21T20:18:58.107Z,80.96
2022-11-21T20:22:04.799Z,81.25
2022-11-21T20:25:09.815Z,79.87
2022-11-21T20:28:13.392Z,80.52
2022-11-21T20:31:18.622Z,80.59
2022-11-21T20:34:23.163Z,80.67
2022-11-21T20:37:31.081Z,80.35
2022-11-21T20:40:35.217Z,81.05
2022-11-21T20:44:20.089Z,81.49
2022-11-21T20:47:02.904Z,81.31
2022-11-21T20:50:07.745Z,81.77
2022-11-21T20:53:50.874Z,82.33
2022-11-21T20:56:43.889Z,82.55
2022-11-21T20:59:49.158Z,82.50
2022-11-21T21:02:54.064Z,82.43
2022-11-21T21:06:05.592Z,82.18
2022-11-21T21:09:13.422Z,82.25
2022-11-21T21:12:17.944Z,81.67
2022-11-21T21:15:22.946Z,79.97
2022-11-21T21:18:27.107Z,80.96
2022-11-21T21:21:32.047Z,81.34
2022-11-21T21:24:37.992Z,81.79
2022-11-21T21:27:42.348Z,79.96
2022-11-21T21:30:47.358Z,79.53
2022-11-21T21:33:52.108Z,80.60
2022-11-21T21:36:56.919Z,80.76
2022-11-21T21:40:03.387Z,80.87
2022-11-21T21:43:07.875Z,80.72
2022-11-21T21:46:13.986Z,80.20
2022-11-21T21:49:21.106Z,79.92
2022-11-21T21:52:25.384Z,80.50
2022-11-21T21:55:32.440Z,79.43
2022-11-21T21:58:38.403Z,78.85
2022-11-21T22:01:43.888Z,79.75
2022-11-21T22:04:51.851Z,79.41
2022-11-21T22:07:56.264Z,79.29
2022-11-21T22:11:05.155Z,79.81
2022-11-21T22:14:13.830Z,79.59
2022-11-21T22:17:18.849Z,78.91
2022-11-21T22:20:23.000Z,80.38
2022-11-21T22:23:27.528Z,80.78
2022-11-21T22:26:33.373Z,81.26
2022-11-21T22:29:39.871Z,82.22
2022-11-21T22:32:44.357Z,82.10
2022-11-21T22:35:48.519Z,81.95
2022-11-21T22:38:55.140Z,82.12
2022-11-21T22:42:01.110Z,81.39
2022-11-21T22:45:05.272Z,82.14
2022-11-21T22:48:08.636Z,82.45
2022-11-21T22:51:14.628Z,83.56
2022-11-21T22:54:18.365Z,83.85
2022-11-21T22:57:24.282Z,84.60
2022-11-21T23:00:27.366Z,85.09
2022-11-21T23:03:32.132Z,86.48
2022-11-21T23:06:35.596Z,86.75
2022-11-21T23:09:41.689Z,87.49
2022-11-21T23:12:48.472Z,88.25
2022-11-21T23:15:51.950Z,88.63
2022-11-21T23:18:56.788Z,88.03
2022-11-21T23:22:00.344Z,87.64
2022-11-21T23:25:03.547Z,87.66
2022-11-21T23:28:09.238Z,86.82
2022-11-21T23:31:12.368Z,87.10
2022-11-21T23:34:15.626Z,87.46
2022-11-21T23:37:18.885Z,88.18
2022-11-21T23:40:22.341Z,87.54
2022-11-21T23:43:26.766Z,88.39
2022-11-21T23:46:30.722Z,89.06
2022-11-21T23:49:34.738Z,90.09
2022-11-21T23:52:37.922Z,90.27
2022-11-21T23:55:41.438Z,91.04
2022-11-21T23:58:46.335Z,91.42
